Time;durP1;ratioP1;P1;durP2;ratioP2;P2;SDS_P1;SDS_P2;PMS_P1;PMS_P2;Temp;Humidity;BMP_temperature;BMP_pressure;BME280_temperature;BME280_humidity;BME280_pressure;Samples;Min_cycle;Max_cycle;Signal;HPM_P1;HPM_P2
2023/05/21 00:00:27;;;;;;;15.32;3.30;;;;;;;;;;5051386;28;20036;-76
2023/05/21 00:02:54;;;;;;;13.98;4.65;;;;;;;;;;5063260;28;20047;-76
2023/05/21 00:05:20;;;;;;;12.70;4.68;;;;;;;;;;5067506;28;20025;-77
2023/05/21 00:07:46;;;;;;;17.13;3.92;;;;;;;;;;5063605;28;20056;-76
2023/05/21 00:10:13;;;;;;;15.65;4.85;;;;;;;;;;5066235;28;20033;-76
2023/05/21 00:12:40;;;;;;;12.35;4.60;;;;;;;;;;5060867;28;20393;-76
2023/05/21 00:15:06;;;;;;;16.60;4.63;;;;;;;;;;5067801;28;20035;-76
2023/05/21 00:17:35;;;;;;;10.98;5.00;;;;;;;;;;5064736;28;20027;-78
2023/05/21 00:20:08;;;;;;;15.20;5.88;;;;;;;;;;5067868;28;20202;-78
2023/05/21 00:22:35;;;;;;;19.80;5.88;;;;;;;;;;5054324;28;20416;-77
2023/05/21 00:25:01;;;;;;;15.70;6.32;;;;;;;;;;5066838;28;20492;-77
2023/05/21 00:27:27;;;;;;;19.33;6.57;;;;;;;;;;5063585;28;20028;-76
2023/05/21 00:29:53;;;;;;;20.02;6.05;;;;;;;;;;5067272;28;20020;-77
2023/05/21 00:32:20;;;;;;;24.42;7.05;;;;;;;;;;5066242;28;20025;-76
2023/05/21 00:34:46;;;;;;;18.23;6.47;;;;;;;;;;5066454;28;20430;-77
2023/05/21 00:37:14;;;;;;;17.45;6.70;;;;;;;;;;5064740;28;20028;-76
2023/05/21 00:39:40;;;;;;;19.10;6.03;;;;;;;;;;5064528;28;20029;-76
2023/05/21 00:42:06;;;;;;;14.82;6.43;;;;;;;;;;5068040;28;20083;-77
2023/05/21 00:44:33;;;;;;;15.32;7.25;;;;;;;;;;5067677;28;20078;-77
2023/05/21 00:47:02;;;;;;;17.35;6.22;;;;;;;;;;5065458;28;20544;-78
2023/05/21 00:49:29;;;;;;;13.80;6.20;;;;;;;;;;5072244;28;20021;-76
2023/05/21 00:51:56;;;;;;;18.33;6.80;;;;;;;;;;5066815;28;20029;-77
2023/05/21 00:54:23;;;;;;;14.50;6.80;;;;;;;;;;5075453;28;20028;-78
2023/05/21 00:56:50;;;;;;;22.95;7.07;;;;;;;;;;5066071;28;20021;-76
2023/05/21 00:59:16;;;;;;;12.65;5.40;;;;;;;;;;5075849;28;20050;-76
2023/05/21 01:01:44;;;;;;;14.57;5.57;;;;;;;;;;5064421;28;20040;-76
2023/05/21 01:04:10;;;;;;;16.50;6.20;;;;;;;;;;5067553;28;20035;-77
2023/05/21 01:06:36;;;;;;;18.45;6.38;;;;;;;;;;5065972;28;20021;-76
2023/05/21 01:09:05;;;;;;;16.90;7.15;;;;;;;;;;5058986;28;20492;-76
2023/05/21 01:11:40;;;;;;;11.75;5.85;;;;;;;;;;5065304;28;20112;-76
2023/05/21 01:14:08;;;;;;;20.45;6.28;;;;;;;;;;5067981;28;20031;-77
2023/05/21 01:16:37;;;;;;;24.15;7.25;;;;;;;;;;5065917;28;20055;-76
2023/05/21 01:19:04;;;;;;;14.48;6.63;;;;;;;;;;5074521;28;20126;-77
2023/05/21 01:21:30;;;;;;;15.43;6.60;;;;;;;;;;5066387;28;20032;-77
2023/05/21 01:23:57;;;;;;;19.52;6.10;;;;;;;;;;5068366;28;20842;-78
2023/05/21 01:26:24;;;;;;;17.88;6.35;;;;;;;;;;5066380;28;20066;-79
2023/05/21 01:28:51;;;;;;;17.58;7.00;;;;;;;;;;5072569;28;20433;-79
2023/05/21 01:31:26;;;;;;;17.83;6.50;;;;;;;;;;5065389;28;20472;-79
2023/05/21 01:33:53;;;;;;;19.67;6.68;;;;;;;;;;5067267;28;20027;-78
2023/05/21 01:36:23;;;;;;;17.20;6.60;;;;;;;;;;5058984;28;20024;-78
2023/05/21 01:38:55;;;;;;;18.25;6.78;;;;;;;;;;5063870;28;20056;-78
2023/05/21 01:41:21;;;;;;;16.52;6.40;;;;;;;;;;5055293;28;20039;-79
2023/05/21 01:43:48;;;;;;;19.70;6.70;;;;;;;;;;5071310;28;20103;-77
2023/05/21 01:46:16;;;;;;;15.70;6.72;;;;;;;;;;5067039;28;20016;-79
2023/05/21 01:48:43;;;;;;;18.15;6.47;;;;;;;;;;5061868;28;20455;-79
2023/05/21 01:51:10;;;;;;;17.45;7.05;;;;;;;;;;5064695;28;20489;-78
2023/05/21 01:53:39;;;;;;;15.43;6.03;;;;;;;;;;5063617;28;20412;-78
2023/05/21 01:56:06;;;;;;;12.18;5.53;;;;;;;;;;5063341;28;20173;-78
2023/05/21 01:58:32;;;;;;;15.80;6.78;;;;;;;;;;5064191;28;20027;-78
2023/05/21 02:00:58;;;;;;;19.45;6.05;;;;;;;;;;5066302;28;20044;-78
2023/05/21 02:03:26;;;;;;;15.80;5.50;;;;;;;;;;5064063;28;20386;-79
2023/05/21 02:05:52;;;;;;;17.52;6.65;;;;;;;;;;5066227;28;20088;-78
2023/05/21 02:08:18;;;;;;;19.95;5.90;;;;;;;;;;5065492;28;20047;-78
2023/05/21 02:10:45;;;;;;;16.05;6.05;;;;;;;;;;5066124;28;20743;-78
2023/05/21 02:13:11;;;;;;;17.55;5.60;;;;;;;;;;5061576;28;20028;-77
2023/05/21 02:15:37;;;;;;;17.80;6.30;;;;;;;;;;5066971;28;20070;-78
2023/05/21 02:18:04;;;;;;;13.57;5.97;;;;;;;;;;5065949;28;20016;-77
2023/05/21 02:20:30;;;;;;;12.77;6.10;;;;;;;;;;5066965;28;20104;-78
2023/05/21 02:22:56;;;;;;;11.60;5.50;;;;;;;;;;5064448;28;20028;-76
2023/05/21 02:25:22;;;;;;;10.73;4.95;;;;;;;;;;5074892;28;20016;-77
2023/05/21 02:27:52;;;;;;;15.57;5.15;;;;;;;;;;5065452;28;20121;-75
2023/05/21 02:30:18;;;;;;;13.90;5.65;;;;;;;;;;5074302;28;20025;-76
2023/05/21 02:32:44;;;;;;;14.95;5.60;;;;;;;;;;5061821;28;20032;-75
2023/05/21 02:35:11;;;;;;;14.07;5.03;;;;;;;;;;5065922;28;20051;-75
2023/05/21 02:37:39;;;;;;;10.77;4.97;;;;;;;;;;5063721;28;20121;-76
2023/05/21 02:40:06;;;;;;;17.15;5.55;;;;;;;;;;5065119;28;20443;-75
2023/05/21 02:42:32;;;;;;;21.08;5.75;;;;;;;;;;5062774;28;20044;-75
2023/05/21 02:44:58;;;;;;;16.75;5.53;;;;;;;;;;5066255;28;20020;-76
2023/05/21 02:47:24;;;;;;;16.15;5.30;;;;;;;;;;5064389;28;20082;-76
2023/05/21 02:49:51;;;;;;;12.60;4.60;;;;;;;;;;5066487;28;20103;-77
2023/05/21 02:52:17;;;;;;;9.85;4.72;;;;;;;;;;5065221;28;20035;-76
2023/05/21 02:54:44;;;;;;;10.20;4.95;;;;;;;;;;5065097;28;20121;-76
2023/05/21 02:57:10;;;;;;;13.43;4.63;;;;;;;;;;5064840;28;20579;-76
2023/05/21 02:59:36;;;;;;;12.23;4.93;;;;;;;;;;5072192;28;20048;-76
2023/05/21 03:02:03;;;;;;;15.35;4.65;;;;;;;;;;5064997;28;20020;-76
2023/05/21 03:04:29;;;;;;;14.38;4.03;;;;;;;;;;5072204;28;20408;-76
2023/05/21 03:06:56;;;;;;;12.02;4.25;;;;;;;;;;5062894;28;20119;-75
2023/05/21 03:09:22;;;;;;;12.35;5.03;;;;;;;;;;5065605;28;20791;-76
2023/05/21 03:11:49;;;;;;;15.00;5.07;;;;;;;;;;5064265;28;20090;-75
2023/05/21 03:14:15;;;;;;;13.38;4.82;;;;;;;;;;5070833;28;20214;-75
2023/05/21 03:16:42;;;;;;;15.05;4.75;;;;;;;;;;5062795;28;20863;-78
2023/05/21 03:19:09;;;;;;;14.27;5.03;;;;;;;;;;5063381;28;20028;-75
2023/05/21 03:21:36;;;;;;;12.07;4.63;;;;;;;;;;5061453;28;20028;-75
2023/05/21 03:24:03;;;;;;;12.27;4.45;;;;;;;;;;5062328;28;20024;-76
2023/05/21 03:26:29;;;;;;;12.90;4.93;;;;;;;;;;5061885;28;20052;-76
2023/05/21 03:28:56;;;;;;;11.57;4.68;;;;;;;;;;5056727;28;20641;-79
2023/05/21 03:31:23;;;;;;;9.77;4.07;;;;;;;;;;5060080;28;20031;-77
2023/05/21 03:33:50;;;;;;;12.43;4.43;;;;;;;;;;5057703;28;20027;-76
2023/05/21 03:36:16;;;;;;;12.30;4.50;;;;;;;;;;5059889;28;20083;-76
2023/05/21 03:38:42;;;;;;;14.93;5.05;;;;;;;;;;5064193;28;20020;-76
2023/05/21 03:41:09;;;;;;;13.23;5.28;;;;;;;;;;5057567;28;20032;-76
2023/05/21 03:43:35;;;;;;;8.57;4.43;;;;;;;;;;5060574;28;20025;-76
2023/05/21 03:46:01;;;;;;;11.30;4.40;;;;;;;;;;5058012;28;20073;-75
2023/05/21 03:48:27;;;;;;;12.98;4.90;;;;;;;;;;5060999;28;20020;-77
2023/05/21 03:50:54;;;;;;;18.20;5.20;;;;;;;;;;5060624;28;20021;-77
2023/05/21 03:53:20;;;;;;;12.95;4.82;;;;;;;;;;5060470;28;20044;-76
2023/05/21 03:55:53;;;;;;;12.55;4.55;;;;;;;;;;5053599;28;20021;-76
2023/05/21 03:58:20;;;;;;;11.23;4.25;;;;;;;;;;5061775;28;20081;-76
2023/05/21 04:00:46;;;;;;;14.43;4.68;;;;;;;;;;5067589;28;20044;-77
2023/05/21 04:03:13;;;;;;;7.97;4.18;;;;;;;;;;5056862;28;20044;-76
2023/05/21 04:05:40;;;;;;;9.45;4.45;;;;;;;;;;5059638;28;20158;-76
2023/05/21 04:08:06;;;;;;;10.85;4.20;;;;;;;;;;5058922;28;20564;-76
2023/05/21 04:10:32;;;;;;;11.77;4.30;;;;;;;;;;5061545;28;20564;-77
2023/05/21 04:12:58;;;;;;;11.35;4.53;;;;;;;;;;5062872;28;20469;-76
2023/05/21 04:15:26;;;;;;;11.45;3.50;;;;;;;;;;5059163;28;20094;-77
2023/05/21 04:17:53;;;;;;;7.95;4.00;;;;;;;;;;5061804;28;20663;-76
2023/05/21 04:20:19;;;;;;;12.52;4.43;;;;;;;;;;5061172;28;20086;-78
2023/05/21 04:22:46;;;;;;;13.18;4.95;;;;;;;;;;5064333;28;20458;-77
2023/05/21 04:25:12;;;;;;;13.93;4.72;;;;;;;;;;5066652;28;20031;-78
2023/05/21 04:27:38;;;;;;;9.35;4.00;;;;;;;;;;5065742;28;20112;-76
2023/05/21 04:30:05;;;;;;;7.97;3.50;;;;;;;;;;5063686;28;20064;-77
2023/05/21 04:32:33;;;;;;;12.13;4.03;;;;;;;;;;5062779;28;20055;-79
2023/05/21 04:35:00;;;;;;;10.85;3.72;;;;;;;;;;5064331;28;20020;-78
2023/05/21 04:37:33;;;;;;;9.68;4.18;;;;;;;;;;5062817;28;20024;-76
2023/05/21 04:40:02;;;;;;;7.40;3.80;;;;;;;;;;5063415;28;20024;-76
2023/05/21 04:42:29;;;;;;;10.18;4.00;;;;;;;;;;5061608;28;20131;-76
2023/05/21 04:44:58;;;;;;;9.13;3.33;;;;;;;;;;5064073;28;20028;-80
2023/05/21 04:47:24;;;;;;;13.07;4.65;;;;;;;;;;5059387;28;20048;-77
2023/05/21 04:49:50;;;;;;;12.65;4.75;;;;;;;;;;5064379;28;20027;-76
2023/05/21 04:52:17;;;;;;;8.93;3.92;;;;;;;;;;5058705;28;20070;-75
2023/05/21 04:54:44;;;;;;;8.77;3.78;;;;;;;;;;5067467;28;20068;-77
2023/05/21 04:57:10;;;;;;;10.65;4.28;;;;;;;;;;5056716;28;20433;-76
2023/05/21 04:59:37;;;;;;;9.35;4.03;;;;;;;;;;5062295;28;20127;-76
2023/05/21 05:02:03;;;;;;;10.65;5.10;;;;;;;;;;5059596;28;20042;-75
2023/05/21 05:04:29;;;;;;;8.27;4.30;;;;;;;;;;5061307;28;20520;-76
2023/05/21 05:06:55;;;;;;;15.73;6.00;;;;;;;;;;5060883;28;20687;-75
2023/05/21 05:09:23;;;;;;;12.43;3.83;;;;;;;;;;5062273;28;20177;-76
2023/05/21 05:11:50;;;;;;;12.00;4.70;;;;;;;;;;5062017;28;20021;-76
2023/05/21 05:14:16;;;;;;;12.18;5.47;;;;;;;;;;5063809;28;20074;-75
2023/05/21 05:16:42;;;;;;;18.25;5.20;;;;;;;;;;5059385;28;20037;-76
2023/05/21 05:19:09;;;;;;;19.25;6.80;;;;;;;;;;5063940;28;20209;-76
2023/05/21 05:21:36;;;;;;;18.33;6.13;;;;;;;;;;5060221;28;20098;-76
2023/05/21 05:24:02;;;;;;;21.67;7.20;;;;;;;;;;5063259;28;20040;-76
2023/05/21 05:26:28;;;;;;;13.25;5.95;;;;;;;;;;5060988;28;20541;-79
2023/05/21 05:28:55;;;;;;;22.55;6.25;;;;;;;;;;5062775;28;20032;-75
2023/05/21 05:31:21;;;;;;;18.05;6.13;;;;;;;;;;5059636;28;20492;-75
2023/05/21 05:33:48;;;;;;;17.95;6.20;;;;;;;;;;5063024;28;20020;-75
2023/05/21 05:36:14;;;;;;;20.08;7.00;;;;;;;;;;5058159;28;20033;-76
2023/05/21 05:38:40;;;;;;;19.75;6.28;;;;;;;;;;5061413;28;20313;-77
2023/05/21 05:41:06;;;;;;;15.75;5.65;;;;;;;;;;5061726;28;20074;-76
2023/05/21 05:43:32;;;;;;;24.15;9.52;;;;;;;;;;5062051;28;20037;-75
2023/05/21 05:45:59;;;;;;;38.42;16.85;;;;;;;;;;5058552;28;20028;-75
2023/05/21 05:48:25;;;;;;;29.20;13.07;;;;;;;;;;5060942;28;20227;-75
2023/05/21 05:50:53;;;;;;;20.33;8.25;;;;;;;;;;5062309;28;20028;-76
2023/05/21 05:53:20;;;;;;;21.88;7.90;;;;;;;;;;5054960;28;20618;-76
2023/05/21 05:55:46;;;;;;;17.70;6.53;;;;;;;;;;5060734;28;20028;-77
2023/05/21 05:58:12;;;;;;;17.63;5.97;;;;;;;;;;5059992;28;20025;-76
2023/05/21 06:00:38;;;;;;;18.95;5.50;;;;;;;;;;5063128;28;20109;-77
2023/05/21 06:03:04;;;;;;;20.05;7.60;;;;;;;;;;5058919;28;20181;-75
2023/05/21 06:05:31;;;;;;;21.05;7.35;;;;;;;;;;5058192;28;20025;-76
2023/05/21 06:07:57;;;;;;;19.58;7.15;;;;;;;;;;5059581;28;20396;-76
2023/05/21 06:10:23;;;;;;;24.40;8.35;;;;;;;;;;5061406;28;20033;-76
2023/05/21 06:12:49;;;;;;;20.55;6.28;;;;;;;;;;5059683;28;20055;-77
2023/05/21 06:15:18;;;;;;;19.45;5.90;;;;;;;;;;5062395;28;20099;-76
2023/05/21 06:17:44;;;;;;;18.67;5.10;;;;;;;;;;5057711;28;20029;-75
2023/05/21 06:20:11;;;;;;;19.48;6.38;;;;;;;;;;5062196;28;20051;-76
2023/05/21 06:22:37;;;;;;;17.60;5.82;;;;;;;;;;5059921;28;20036;-75
2023/05/21 06:25:04;;;;;;;23.98;6.82;;;;;;;;;;5068026;28;20333;-77
2023/05/21 06:27:30;;;;;;;14.60;5.88;;;;;;;;;;5058107;28;20504;-75
2023/05/21 06:29:57;;;;;;;14.35;5.35;;;;;;;;;;5069732;28;20035;-75
2023/05/21 06:32:24;;;;;;;23.02;5.90;;;;;;;;;;5059515;28;20118;-76
2023/05/21 06:34:50;;;;;;;18.63;5.72;;;;;;;;;;5062014;28;20085;-76
2023/05/21 06:37:20;;;;;;;14.38;5.72;;;;;;;;;;5055213;28;20037;-75
2023/05/21 06:39:46;;;;;;;17.35;6.15;;;;;;;;;;5062265;28;20024;-76
2023/05/21 06:42:13;;;;;;;17.58;6.28;;;;;;;;;;5056040;28;21408;-75
2023/05/21 06:44:39;;;;;;;18.10;6.70;;;;;;;;;;5062023;28;20050;-80
2023/05/21 06:47:05;;;;;;;17.63;6.82;;;;;;;;;;5056689;28;20043;-78
2023/05/21 06:49:32;;;;;;;17.55;5.75;;;;;;;;;;5060739;28;20031;-75
2023/05/21 06:51:58;;;;;;;16.60;5.93;;;;;;;;;;5057203;28;20119;-76
2023/05/21 06:54:24;;;;;;;17.70;6.05;;;;;;;;;;5061031;28;20024;-75
2023/05/21 06:56:50;;;;;;;18.58;5.53;;;;;;;;;;5058564;28;20089;-83
2023/05/21 06:59:16;;;;;;;16.00;5.90;;;;;;;;;;5060061;28;20041;-74
2023/05/21 07:01:43;;;;;;;16.98;5.97;;;;;;;;;;5059987;28;20155;-83
2023/05/21 07:04:09;;;;;;;14.48;5.70;;;;;;;;;;5061881;28;20058;-76
2023/05/21 07:06:36;;;;;;;19.55;6.82;;;;;;;;;;5067769;28;20739;-75
2023/05/21 07:09:04;;;;;;;23.02;5.85;;;;;;;;;;5061401;28;20111;-84
2023/05/21 07:11:31;;;;;;;20.60;6.15;;;;;;;;;;5063449;28;20419;-83
2023/05/21 07:14:02;;;;;;;14.93;5.85;;;;;;;;;;5065000;28;20033;-78
2023/05/21 07:16:28;;;;;;;13.32;5.50;;;;;;;;;;5063334;28;20111;-87
2023/05/21 07:18:55;;;;;;;16.65;6.60;;;;;;;;;;5067386;28;20108;-87
2023/05/21 07:21:21;;;;;;;12.20;5.97;;;;;;;;;;5065011;28;20025;-76
2023/05/21 07:23:47;;;;;;;16.33;6.80;;;;;;;;;;5065169;28;20379;-84
2023/05/21 07:26:13;;;;;;;22.02;6.05;;;;;;;;;;5070234;28;20119;-89
2023/05/21 07:28:40;;;;;;;18.70;6.63;;;;;;;;;;5061164;28;20103;-84
2023/05/21 07:31:07;;;;;;;12.77;5.88;;;;;;;;;;5066665;28;20108;-80
2023/05/21 07:33:33;;;;;;;17.08;6.25;;;;;;;;;;5062050;28;20040;-85
2023/05/21 07:35:59;;;;;;;20.40;7.20;;;;;;;;;;5067162;28;20016;-82
2023/05/21 07:38:26;;;;;;;14.23;5.45;;;;;;;;;;5071802;28;20039;-86
2023/05/21 07:40:52;;;;;;;14.18;6.40;;;;;;;;;;5074188;28;20040;-88
2023/05/21 07:43:18;;;;;;;12.80;5.47;;;;;;;;;;5057199;28;20093;-83
2023/05/21 07:45:44;;;;;;;11.60;4.97;;;;;;;;;;5062556;28;20021;-85
2023/05/21 07:48:10;;;;;;;13.95;5.75;;;;;;;;;;5060340;28;20032;-89
2023/05/21 07:50:37;;;;;;;14.60;5.38;;;;;;;;;;5065065;28;20388;-88
2023/05/21 07:53:03;;;;;;;13.93;5.18;;;;;;;;;;5066045;28;20032;-85
2023/05/21 07:55:29;;;;;;;15.63;5.15;;;;;;;;;;5068124;28;20085;-87
2023/05/21 07:57:56;;;;;;;14.05;5.55;;;;;;;;;;5066901;28;20024;-90
2023/05/21 08:00:23;;;;;;;13.07;4.40;;;;;;;;;;5069393;28;20124;-91
2023/05/21 08:02:51;;;;;;;31.95;5.32;;;;;;;;;;5063930;28;20043;-84
2023/05/21 08:05:17;;;;;;;14.15;4.40;;;;;;;;;;5062826;28;20616;-83
2023/05/21 08:07:43;;;;;;;11.02;4.78;;;;;;;;;;5073980;28;20408;-87
2023/05/21 08:10:09;;;;;;;18.65;5.53;;;;;;;;;;5070571;28;20537;-77
2023/05/21 08:12:35;;;;;;;14.43;4.40;;;;;;;;;;5067092;28;20127;-81
2023/05/21 08:15:02;;;;;;;13.98;4.80;;;;;;;;;;5065648;28;20024;-83
2023/05/21 08:17:28;;;;;;;9.45;5.15;;;;;;;;;;5075870;28;20024;-86
2023/05/21 08:19:54;;;;;;;14.73;4.80;;;;;;;;;;5065259;28;20035;-84
2023/05/21 08:22:20;;;;;;;13.60;4.40;;;;;;;;;;5057590;28;20594;-77
2023/05/21 08:24:47;;;;;;;15.05;5.20;;;;;;;;;;5064833;28;20036;-87
2023/05/21 08:27:14;;;;;;;12.88;5.18;;;;;;;;;;5068996;28;20059;-86
2023/05/21 08:29:41;;;;;;;10.55;5.10;;;;;;;;;;5068338;28;20066;-89
2023/05/21 08:32:08;;;;;;;13.57;4.95;;;;;;;;;;5069577;28;20038;-89
2023/05/21 08:34:35;;;;;;;8.38;4.10;;;;;;;;;;5066583;28;20052;-87
2023/05/21 08:37:01;;;;;;;9.60;4.57;;;;;;;;;;5072660;28;20024;-86
2023/05/21 08:39:27;;;;;;;8.63;4.40;;;;;;;;;;5068648;28;20028;-87
2023/05/21 08:41:56;;;;;;;10.85;4.95;;;;;;;;;;5068890;28;20025;-85
2023/05/21 08:44:24;;;;;;;12.60;5.00;;;;;;;;;;5069240;28;20102;-88
2023/05/21 08:46:50;;;;;;;6.93;4.20;;;;;;;;;;5068199;28;20016;-83
2023/05/21 08:49:17;;;;;;;14.85;5.10;;;;;;;;;;5079895;28;20391;-87
2023/05/21 08:51:45;;;;;;;11.60;5.13;;;;;;;;;;5067687;28;20025;-84
2023/05/21 08:54:12;;;;;;;13.02;4.80;;;;;;;;;;5067494;28;20096;-87
2023/05/21 08:56:44;;;;;;;10.95;5.35;;;;;;;;;;5068240;28;20028;-79
2023/05/21 08:59:11;;;;;;;13.20;5.00;;;;;;;;;;5070429;28;20048;-87
2023/05/21 09:01:40;;;;;;;10.60;4.95;;;;;;;;;;5074070;28;20036;-88
2023/05/21 09:04:07;;;;;;;10.43;4.82;;;;;;;;;;5070817;28;20384;-87
2023/05/21 09:06:33;;;;;;;12.50;5.53;;;;;;;;;;5071800;28;20058;-87
2023/05/21 09:09:03;;;;;;;11.38;5.60;;;;;;;;;;5071971;28;20023;-86
2023/05/21 09:11:29;;;;;;;12.60;5.47;;;;;;;;;;5064531;28;20020;-85
2023/05/21 09:13:57;;;;;;;13.00;5.57;;;;;;;;;;5067055;28;20025;-76
2023/05/21 09:16:23;;;;;;;12.43;6.00;;;;;;;;;;5059714;28;20027;-89
2023/05/21 09:18:49;;;;;;;13.75;6.03;;;;;;;;;;5063980;28;20016;-86
2023/05/21 09:21:26;;;;;;;22.77;6.13;;;;;;;;;;5069507;28;20464;-80
2023/05/21 09:23:53;;;;;;;14.27;5.78;;;;;;;;;;5078951;28;20024;-90
2023/05/21 09:26:21;;;;;;;12.52;5.07;;;;;;;;;;5066541;28;20060;-79
2023/05/21 09:28:47;;;;;;;54.25;8.02;;;;;;;;;;5062232;28;20040;-79
2023/05/21 09:31:13;;;;;;;14.27;4.72;;;;;;;;;;5063496;28;20127;-84
2023/05/21 09:33:48;;;;;;;12.88;4.85;;;;;;;;;;5062315;28;20059;-88
2023/05/21 09:36:15;;;;;;;13.63;4.95;;;;;;;;;;5064552;28;20487;-85
2023/05/21 09:38:41;;;;;;;9.38;4.68;;;;;;;;;;5064022;28;20028;-81
2023/05/21 09:41:07;;;;;;;14.50;5.43;;;;;;;;;;5068018;28;20641;-85
2023/05/21 09:43:33;;;;;;;13.52;5.30;;;;;;;;;;5075589;28;20093;-90
2023/05/21 09:46:00;;;;;;;13.57;5.63;;;;;;;;;;5065612;28;20017;-87
2023/05/21 09:48:33;;;;;;;11.93;5.32;;;;;;;;;;5066991;28;20035;-84
2023/05/21 09:51:19;;;;;;;16.98;5.25;;;;;;;;;;5059290;28;20024;-87
2023/05/21 09:53:48;;;;;;;8.40;3.40;;;;;;;;;;5061153;28;20690;-85
2023/05/21 09:56:14;;;;;;;8.13;3.17;;;;;;;;;;5072186;28;20624;-91
2023/05/21 09:58:40;;;;;;;6.15;3.22;;;;;;;;;;5064749;28;20103;-91
2023/05/21 10:01:07;;;;;;;7.13;3.33;;;;;;;;;;5067539;28;20048;-91
2023/05/21 10:03:35;;;;;;;7.05;4.20;;;;;;;;;;5071149;28;20589;-85
2023/05/21 10:06:01;;;;;;;11.70;4.22;;;;;;;;;;5062761;28;20111;-90
2023/05/21 10:08:30;;;;;;;9.02;3.83;;;;;;;;;;5068402;28;20028;-87
2023/05/21 10:10:56;;;;;;;7.10;2.65;;;;;;;;;;5064443;28;20035;-84
2023/05/21 10:13:23;;;;;;;6.97;2.50;;;;;;;;;;5055166;28;20040;-79
2023/05/21 10:16:02;;;;;;;5.35;2.60;;;;;;;;;;5060126;28;20764;-85
2023/05/21 10:18:29;;;;;;;8.23;3.28;;;;;;;;;;5061019;28;20021;-80
2023/05/21 10:20:55;;;;;;;8.73;2.80;;;;;;;;;;5063196;28;20823;-85
2023/05/21 10:23:23;;;;;;;7.07;3.33;;;;;;;;;;5058660;28;20443;-85
2023/05/21 10:25:49;;;;;;;7.65;4.05;;;;;;;;;;5064559;28;20021;-92
2023/05/21 10:28:17;;;;;;;19.05;4.82;;;;;;;;;;5057123;28;20024;-89
2023/05/21 10:30:44;;;;;;;9.88;3.80;;;;;;;;;;5061813;28;20764;-79
2023/05/21 10:33:12;;;;;;;7.20;3.08;;;;;;;;;;5057731;28;20036;-88
2023/05/21 10:35:40;;;;;;;8.38;3.35;;;;;;;;;;5060988;28;20052;-84
2023/05/21 10:38:06;;;;;;;9.43;3.88;;;;;;;;;;5058988;28;20033;-88
2023/05/21 10:40:32;;;;;;;8.75;3.38;;;;;;;;;;5064508;28;20024;-89
2023/05/21 10:43:17;;;;;;;6.63;3.50;;;;;;;;;;5065968;28;20047;-92
2023/05/21 10:45:46;;;;;;;7.30;3.85;;;;;;;;;;5056691;28;20484;-89
2023/05/21 10:48:12;;;;;;;15.25;4.22;;;;;;;;;;5062900;28;20029;-80
2023/05/21 10:50:57;;;;;;;10.68;4.13;;;;;;;;;;5062064;28;20047;-75
2023/05/21 10:53:42;;;;;;;9.68;3.70;;;;;;;;;;5071227;28;20400;-83
2023/05/21 10:56:08;;;;;;;10.25;3.58;;;;;;;;;;5065655;28;20024;-88
2023/05/21 10:58:43;;;;;;;9.88;4.43;;;;;;;;;;5060219;28;20020;-91
2023/05/21 11:01:10;;;;;;;12.50;4.55;;;;;;;;;;5064410;28;20489;-87
2023/05/21 11:03:37;;;;;;;11.93;3.70;;;;;;;;;;5061599;28;20555;-86
2023/05/21 11:06:05;;;;;;;12.23;3.58;;;;;;;;;;5058042;28;20540;-82
2023/05/21 11:08:34;;;;;;;10.27;4.05;;;;;;;;;;5054282;28;20361;-87
2023/05/21 11:11:01;;;;;;;12.98;3.60;;;;;;;;;;5057364;28;20394;-84
2023/05/21 11:13:30;;;;;;;12.05;4.13;;;;;;;;;;5059488;28;20040;-86
2023/05/21 11:16:04;;;;;;;10.18;3.78;;;;;;;;;;5061104;28;20060;-77
2023/05/21 11:18:36;;;;;;;11.68;3.72;;;;;;;;;;5062558;28;20025;-84
2023/05/21 11:21:06;;;;;;;11.95;3.60;;;;;;;;;;5059979;28;20394;-89
2023/05/21 11:23:51;;;;;;;9.23;3.25;;;;;;;;;;5060407;28;20640;-89
2023/05/21 11:26:18;;;;;;;6.25;2.85;;;;;;;;;;5066171;28;20020;-86
2023/05/21 11:28:44;;;;;;;10.02;3.28;;;;;;;;;;5061875;28;20027;-81
2023/05/21 11:31:28;;;;;;;9.63;3.35;;;;;;;;;;5057609;28;20728;-87
2023/05/21 11:34:13;;;;;;;7.28;2.85;;;;;;;;;;5063758;28;20021;-84
2023/05/21 11:36:49;;;;;;;12.30;3.70;;;;;;;;;;5076987;28;20078;-90
2023/05/21 11:39:21;;;;;;;13.32;3.83;;;;;;;;;;5065443;28;20457;-89
2023/05/21 11:41:50;;;;;;;8.88;3.70;;;;;;;;;;5059737;28;20032;-85
2023/05/21 11:44:17;;;;;;;9.05;3.33;;;;;;;;;;5065460;28;20040;-82
2023/05/21 11:46:44;;;;;;;7.18;3.42;;;;;;;;;;5057190;28;20074;-89
2023/05/21 11:49:10;;;;;;;12.07;4.18;;;;;;;;;;5061556;28;20218;-86
2023/05/21 11:51:36;;;;;;;9.48;3.70;;;;;;;;;;5063486;28;20032;-86
2023/05/21 11:54:05;;;;;;;8.18;3.30;;;;;;;;;;5066793;28;20016;-84
2023/05/21 11:56:32;;;;;;;8.43;2.78;;;;;;;;;;5068507;28;20064;-89
2023/05/21 11:59:01;;;;;;;9.25;3.30;;;;;;;;;;5066321;28;20081;-89
2023/05/21 12:01:29;;;;;;;11.23;3.83;;;;;;;;;;5066882;28;20067;-85
2023/05/21 12:03:56;;;;;;;7.03;3.25;;;;;;;;;;5073611;28;20040;-88
2023/05/21 12:06:31;;;;;;;3.72;2.20;;;;;;;;;;5062551;28;20031;-87
2023/05/21 12:08:57;;;;;;;8.02;2.70;;;;;;;;;;5064571;28;20703;-85
2023/05/21 12:11:25;;;;;;;8.57;3.00;;;;;;;;;;5067912;28;20031;-86
2023/05/21 12:13:51;;;;;;;5.93;2.70;;;;;;;;;;5063044;28;20073;-86
2023/05/21 12:16:18;;;;;;;6.57;2.50;;;;;;;;;;5062826;28;20024;-87
2023/05/21 12:18:44;;;;;;;5.63;2.33;;;;;;;;;;5063805;28;20248;-87
2023/05/21 12:21:10;;;;;;;5.28;2.72;;;;;;;;;;5073054;28;20021;-89
2023/05/21 12:23:36;;;;;;;4.80;2.30;;;;;;;;;;5064213;28;20484;-83
2023/05/21 12:26:03;;;;;;;4.43;2.25;;;;;;;;;;5065945;28;20016;-87
2023/05/21 12:28:29;;;;;;;7.40;2.05;;;;;;;;;;5062486;28;20116;-86
2023/05/21 12:30:55;;;;;;;7.07;2.45;;;;;;;;;;5066025;28;20031;-89
2023/05/21 12:33:24;;;;;;;10.48;2.20;;;;;;;;;;5064678;28;20021;-79
2023/05/21 12:35:51;;;;;;;8.45;2.08;;;;;;;;;;5056076;28;20032;-75
2023/05/21 12:38:17;;;;;;;8.68;2.05;;;;;;;;;;5053975;28;20543;-88
2023/05/21 12:40:44;;;;;;;6.30;2.13;;;;;;;;;;5065065;28;20776;-87
2023/05/21 12:43:10;;;;;;;5.18;2.25;;;;;;;;;;5062419;28;20129;-88
2023/05/21 12:45:40;;;;;;;9.57;3.30;;;;;;;;;;5064725;28;20069;-84
2023/05/21 12:48:06;;;;;;;5.95;2.33;;;;;;;;;;5058997;28;20028;-87
2023/05/21 12:50:34;;;;;;;5.85;2.92;;;;;;;;;;5068650;28;20036;-88
2023/05/21 12:53:00;;;;;;;5.85;2.45;;;;;;;;;;5062966;28;20024;-91
2023/05/21 12:55:26;;;;;;;45.40;5.38;;;;;;;;;;5064252;28;20661;-80
2023/05/21 12:58:07;;;;;;;142.80;8.70;;;;;;;;;;5057543;28;20033;-81
2023/05/21 13:00:33;;;;;;;16.52;3.35;;;;;;;;;;5059550;28;20041;-80
2023/05/21 13:03:00;;;;;;;13.60;3.08;;;;;;;;;;5061976;28;20044;-80
2023/05/21 13:05:26;;;;;;;9.60;2.55;;;;;;;;;;5063316;28;20016;-79
2023/05/21 13:07:53;;;;;;;13.38;2.88;;;;;;;;;;5059616;28;20090;-80
2023/05/21 13:10:19;;;;;;;18.05;3.10;;;;;;;;;;5063732;28;20100;-80
2023/05/21 13:12:45;;;;;;;9.52;2.60;;;;;;;;;;5063714;28;20035;-81
2023/05/21 13:15:11;;;;;;;11.38;3.50;;;;;;;;;;5062128;28;20096;-79
2023/05/21 13:17:37;;;;;;;7.30;3.22;;;;;;;;;;5061937;28;20098;-81
2023/05/21 13:20:13;;;;;;;9.82;3.40;;;;;;;;;;5061423;28;20028;-87
2023/05/21 13:22:45;;;;;;;5.88;2.83;;;;;;;;;;5069239;28;20036;-88
2023/05/21 13:25:14;;;;;;;5.57;2.60;;;;;;;;;;5060328;28;20039;-86
2023/05/21 13:27:40;;;;;;;10.85;3.30;;;;;;;;;;5062514;28;20060;-77
2023/05/21 13:30:08;;;;;;;23.55;3.42;;;;;;;;;;5060378;28;20039;-83
2023/05/21 13:32:34;;;;;;;6.50;2.40;;;;;;;;;;5056776;28;20039;-83
2023/05/21 13:35:00;;;;;;;7.82;2.30;;;;;;;;;;5059350;28;20020;-80
2023/05/21 13:37:26;;;;;;;7.72;2.40;;;;;;;;;;5060529;28;20076;-82
2023/05/21 13:39:52;;;;;;;7.95;2.83;;;;;;;;;;5053245;28;20030;-83
2023/05/21 13:42:19;;;;;;;7.57;2.25;;;;;;;;;;5058494;28;20492;-83
2023/05/21 13:44:49;;;;;;;6.53;2.22;;;;;;;;;;5058845;28;20032;-83
2023/05/21 13:47:15;;;;;;;6.22;2.17;;;;;;;;;;5057278;28;20032;-81
2023/05/21 13:49:41;;;;;;;11.27;2.40;;;;;;;;;;5061022;28;20423;-82
2023/05/21 13:52:08;;;;;;;5.45;2.40;;;;;;;;;;5058169;28;20024;-84
2023/05/21 13:54:34;;;;;;;5.22;2.47;;;;;;;;;;5057035;28;20027;-84
2023/05/21 13:57:01;;;;;;;8.32;3.17;;;;;;;;;;5058862;28;20055;-82
2023/05/21 13:59:27;;;;;;;8.93;3.25;;;;;;;;;;5059953;28;20059;-81
2023/05/21 14:01:53;;;;;;;6.72;3.38;;;;;;;;;;5058205;28;20044;-83
2023/05/21 14:04:20;;;;;;;7.13;2.35;;;;;;;;;;5055756;28;20029;-82
2023/05/21 14:06:46;;;;;;;10.88;3.30;;;;;;;;;;5056741;28;20509;-80
2023/05/21 14:09:12;;;;;;;6.72;2.30;;;;;;;;;;5053525;28;20036;-78
2023/05/21 14:11:39;;;;;;;8.38;2.55;;;;;;;;;;5058223;28;20028;-83
2023/05/21 14:14:05;;;;;;;10.27;3.53;;;;;;;;;;5058770;28;20128;-83
2023/05/21 14:16:31;;;;;;;9.98;3.35;;;;;;;;;;5052567;28;20032;-81
2023/05/21 14:18:58;;;;;;;5.65;2.53;;;;;;;;;;5060458;28;20016;-77
2023/05/21 14:21:25;;;;;;;8.98;2.47;;;;;;;;;;5055870;28;20606;-81
2023/05/21 14:23:51;;;;;;;10.65;3.15;;;;;;;;;;5060240;28;20515;-83
2023/05/21 14:26:18;;;;;;;7.97;3.30;;;;;;;;;;5055382;28;20515;-83
2023/05/21 14:28:45;;;;;;;6.18;2.83;;;;;;;;;;5051239;28;20639;-83
2023/05/21 14:31:11;;;;;;;7.65;2.67;;;;;;;;;;5059168;28;20028;-84
2023/05/21 14:33:38;;;;;;;5.57;2.80;;;;;;;;;;5056592;28;20614;-81